• Join FlightAware (Why Join?)
  • Login
  • US Flag 
03:08AM EDT


 

Airport Tracker/Info


-or-


 

Live Flight TrackerFlight Track Log ✈ GLA61C ✈ 28-Apr-2013 ✈ KCEZ - KDEN

Flight Track Log - Related Links

Times and Time Zones

All times are in EDT time to prevent confusion due to time zone crossing. See the GLA61C flight status page for this flight to view local times or setup timezone preferences in your user account.

Time Position Orientation Groundspeed Altitude Reporting Facility
EDT Latitude Longitude Course Direction KTS MPH feet Rate Location/Type
10:01AM 37.2678 -108.6711 48° Northeast 175 201 8,100  Level Denver Center
10:02AM 37.2350 -108.6625 168° South 171 197 9,900 1,500 Climbing Denver Center
10:03AM 37.2733 -108.6300 34° Northeast 184 212 11,200 1,620 Climbing Denver Center
10:04AM 37.3281 -108.6019 22° Northeast 189 217 13,300 1,680 Climbing Denver Center
10:05AM 37.5866 -108.2288 48° Northeast  Level FlightAware Approximate
10:05AM 37.3739 -108.5778 23° Northeast 187 215 14,700  Level Denver Center
10:06AM 37.6340 -108.1635 48° Northeast  Level FlightAware Approximate
10:06AM 37.4222 -108.5289 39° Northeast 190 219 16,200  Level Denver Center
10:07AM 37.4594 -108.4731 50° Northeast 203 234 17,400 1,020 Climbing Denver Center
10:08AM 37.4964 -108.4147 51° Northeast 216 249 18,400 1,080 Climbing Denver Center
10:09AM 37.5411 -108.3497 49° Northeast 220 253 19,600 1,080 Climbing Denver Center
10:10AM 37.5803 -108.2931 49° Northeast 222 255 20,700 1,020 Climbing Denver Center
10:11AM 37.6269 -108.2272 48° Northeast 225 259 21,800 960 Climbing Denver Center
10:12AM 37.6686 -108.1711 47° Northeast 229 264 22,700 840 Climbing Denver Center
10:13AM 37.7133 -108.1169 44° Northeast 232 267 23,600 960 Climbing Denver Center
10:14AM 37.7606 -108.0511 48° Northeast 228 262 24,700 660 Climbing Denver Center
10:15AM 37.7961 -107.9844 56° Northeast 232 267 25,000 120 Climbing Denver Center
10:16AM 37.8411 -107.9000 56° Northeast 255 293 25,000  Level Denver Center
10:17AM 37.8858 -107.8278 52° Northeast 268 308 25,000  Level Denver Center
10:18AM 37.9358 -107.7633 45° Northeast 269 310 25,000  Level Denver Center
10:19AM 37.9953 -107.6850 46° Northeast 274 315 25,000  Level Denver Center
10:20AM 38.0447 -107.6192 46° Northeast 272 313 25,000  Level Denver Center
10:21AM 38.0944 -107.5375 52° Northeast 273 314 25,000  Level Denver Center
10:22AM 38.1417 -107.4658 50° Northeast 275 316 25,000  Level Denver Center
10:23AM 38.2017 -107.3883 45° Northeast 275 316 25,000  Level Denver Center
10:24AM 38.2531 -107.3219 45° Northeast 276 318 25,000  Level Denver Center
10:26AM 38.3142 -107.2247 51° Northeast 276 318 25,100  Climbing Denver Center
10:27AM 38.3686 -107.1342 52° Northeast 277 319 25,000 -60 Descending Denver Center
10:28AM 38.4211 -107.0633 47° Northeast 275 316 25,000  Level Denver Center
10:29AM 38.4633 -106.9842 56° Northeast 272 313 25,000  Level Denver Center
10:30AM 38.5083 -106.8803 61° Northeast 279 321 25,000  Level Denver Center
10:31AM 38.5414 -106.7914 65° Northeast 278 320 25,000  Level Denver Center
10:32AM 38.5725 -106.7017 66° East 277 319 25,100  Climbing Denver Center
10:33AM 38.6019 -106.6100 68° East 278 320 25,100 -60 Level Denver Center
10:34AM 38.6314 -106.5156 68° East 285 328 25,000 -60 Descending Denver Center
10:35AM 38.6578 -106.4206 70° East 284 327 25,000  Level Denver Center
10:36AM 38.6842 -106.3272 70° East 281 323 25,000  Level Denver Center
10:37AM 38.7231 -106.2222 65° Northeast 273 314 25,000  Level Denver Center
10:38AM 38.7550 -106.1358 65° Northeast 279 321 25,000  Level Denver Center
10:39AM 38.7847 -106.0469 67° East 284 327 25,000  Level Denver Center
10:40AM 38.8331 -105.9564 56° Northeast 277 319 25,000  Level Denver Center
10:41AM 38.8883 -105.8708 50° Northeast 275 316 25,000 -120 Level Denver Center
10:42AM 38.9347 -105.7983 51° Northeast 275 316 24,800 -960 Descending Denver Center
10:43AM 38.9889 -105.7128 51° Northeast 276 318 23,100 -1,560 Descending Denver Center
10:44AM 39.0281 -105.6492 52° Northeast 281 323 21,700 -1,500 Descending Denver Center
10:46AM 39.0836 -105.5617 51° Northeast 282 325 20,000 -1,620 Descending Denver Center
10:47AM 39.1389 -105.4833 48° Northeast 281 323 18,400 -1,560 Descending Denver Center
10:48AM 39.1997 -105.4075 44° Northeast 276 318 16,800 -1,500 Descending Denver Center
10:49AM 39.2506 -105.3367 47° Northeast 270 311 15,300 -900 Descending Denver Center
10:50AM 39.3011 -105.2561 51° Northeast 268 308 15,000 -540 Descending Denver Center
10:51AM 39.3419 -105.1731 58° Northeast 275 316 14,300 -900 Descending Denver Center
10:52AM 39.4014 -105.1089 40° Northeast 278 320 13,200 -660 Descending Denver Center
10:53AM 39.4586 -105.0353 45° Northeast 269 310 13,000 -120 Descending Denver Center
10:54AM 39.5150 -104.9714 41° Northeast 268 308 13,000  Level Denver Center
10:55AM 39.5797 -104.9114 36° Northeast 267 307 13,000  Level Denver Center
10:56AM 39.6361 -104.8481 41° Northeast 270 311 13,000  Level Denver Center
10:57AM 39.6942 -104.7822 41° Northeast 263 303 13,000 -720 Level Denver Center
10:58AM 39.7553 -104.7225 37° Northeast 274 315 11,600 -1,020 Descending Denver Center
10:59AM 39.7725 -104.6286 77° East 277 319 10,900 -1,260 Descending Denver Center
11:00AM 39.7728 -104.5183 90° East 283 326 9,100 -1,440 Descending Denver Center
11:01AM 39.8069 -104.4458 58° Northeast 270 311 8,000 -1,020 Descending Denver Center
11:02AM 39.8561 -104.4869 327° Northwest 192 221 7,100 -780 Descending Denver Center
11:03AM 39.8731 -104.5392 293° West 159 183 6,400 -720 Descending Denver Center
11:04AM 39.8833 -104.5833 287° West 143 165 5,800 -540 Descending Denver TRACON
11:05AM 39.8764 -104.6372 260° West 126 145 5,300 -420 Descending Denver Center
11:07AM 39.8617 -104.6732 221° Southwest  Level Estimated
11:14AM 39.8617 -104.6732 335° Northwest  Level Estimated
11:15AM 39.8617 -104.6732 335° Northwest  Level Estimated